CLM2 weather

Leamington Airport
Leamington, Ontario, Canada

Public forecast

Using degrees Celsius for public forecast. Weather courtesy of forecast.io.

Closest aviation weather report (METAR) to Leamington Airport

Closest report is Windsor Airport, 24.4 nm (45.1 km) NW. Retrieved 2020/06/04 11:00 UTC (34 minutes ago):

CYQG 041100Z AUTO 19002KT 9SM CLR 18/16 A2980 RMK SLP089 DENSITY ALT 1200FT

Closest aviation forecast (TAF) to Leamington Airport

Closest forecast is Windsor Airport, 24.4 nm (45.1 km) NW. Retrieved 2020/06/04 06:42 UTC (5 hours ago):

TAF CYQG 040540Z 0406/0506 24007KT P6SM SCT240 FM041400 25005KT P6SM FEW020 FM041800 20005KT P6SM SCT050 RMK FCST BASED ON AUTO OBS NXT FCST BY 041200Z